createdAt,value
2023-05-21T12:32:22.556Z,3.80
2023-05-21T12:34:52.812Z,4.53
2023-05-21T12:37:31.372Z,4.65
2023-05-21T12:40:00.348Z,5.20
2023-05-21T12:42:35.719Z,5.43
2023-05-21T12:45:09.798Z,3.85
2023-05-21T12:47:37.468Z,4.40
2023-05-21T12:50:08.586Z,5.03
2023-05-21T12:52:35.752Z,3.90
2023-05-21T12:55:03.062Z,4.55
2023-05-21T12:57:41.069Z,4.47
2023-05-21T13:00:09.102Z,3.80
2023-05-21T13:02:44.865Z,3.80
2023-05-21T13:05:20.006Z,3.50
2023-05-21T13:07:48.236Z,4.35
2023-05-21T13:10:18.955Z,3.40
2023-05-21T13:12:46.578Z,3.92
2023-05-21T13:15:14.438Z,3.08
2023-05-21T13:17:41.838Z,3.55
2023-05-21T13:20:14.967Z,3.55
2023-05-21T13:22:43.958Z,3.25
2023-05-21T13:25:12.062Z,3.50
2023-05-21T13:27:40.005Z,3.38
2023-05-21T13:30:07.870Z,3.60
2023-05-21T13:32:35.329Z,3.33
2023-05-21T13:35:02.698Z,3.60
2023-05-21T13:37:29.819Z,3.50
2023-05-21T13:39:57.226Z,3.20
2023-05-21T13:42:24.845Z,3.38
2023-05-21T13:44:52.227Z,3.80
2023-05-21T13:47:19.447Z,3.10
2023-05-21T13:49:46.803Z,3.60
2023-05-21T13:52:13.984Z,3.58
2023-05-21T13:54:42.369Z,3.78
2023-05-21T13:57:09.866Z,4.00
2023-05-21T13:59:36.959Z,3.67
2023-05-21T14:02:04.200Z,3.67
2023-05-21T14:04:31.299Z,3.70
2023-05-21T14:06:58.405Z,3.28
2023-05-21T14:09:27.370Z,3.65
2023-05-21T14:11:55.274Z,4.07
2023-05-21T14:14:23.024Z,3.40
2023-05-21T14:16:51.146Z,3.50
2023-05-21T14:19:18.347Z,3.97
2023-05-21T14:21:45.702Z,3.60
2023-05-21T14:24:12.862Z,3.42
2023-05-21T14:26:42.957Z,3.95
2023-05-21T14:29:10.192Z,3.95
2023-05-21T14:31:37.449Z,3.67
2023-05-21T14:34:06.928Z,3.47
2023-05-21T14:36:34.270Z,3.63
2023-05-21T14:39:01.433Z,3.45
2023-05-21T14:41:29.414Z,3.50
2023-05-21T14:43:56.696Z,3.83
2023-05-21T14:46:23.853Z,3.53
2023-05-21T14:48:50.996Z,3.60
2023-05-21T14:51:19.433Z,3.42
2023-05-21T14:53:46.535Z,3.55
2023-05-21T14:56:13.706Z,3.08
2023-05-21T14:58:40.925Z,3.53
2023-05-21T15:01:08.692Z,3.85
2023-05-21T15:03:36.560Z,3.30
2023-05-21T15:06:04.570Z,3.33
2023-05-21T15:08:31.804Z,3.05
2023-05-21T15:10:58.911Z,3.20
2023-05-21T15:13:27.298Z,3.22
2023-05-21T15:15:54.491Z,3.38
2023-05-21T15:18:21.936Z,3.63
2023-05-21T15:20:48.985Z,3.40
2023-05-21T15:23:17.715Z,3.20
2023-05-21T15:25:45.877Z,3.00
2023-05-21T15:28:13.332Z,3.47
2023-05-21T15:30:40.706Z,3.28
2023-05-21T15:33:07.948Z,3.38
2023-05-21T15:35:36.703Z,3.08
2023-05-21T15:38:04.130Z,3.05
2023-05-21T15:40:32.326Z,2.95
2023-05-21T15:42:59.584Z,3.15
2023-05-21T15:45:26.765Z,3.25
2023-05-21T15:47:54.865Z,3.22
2023-05-21T15:50:22.069Z,3.13
2023-05-21T15:52:50.378Z,2.92
2023-05-21T15:55:19.479Z,3.25
2023-05-21T15:57:46.541Z,2.88
2023-05-21T16:00:14.009Z,3.17
2023-05-21T16:02:42.224Z,2.75
2023-05-21T16:05:09.795Z,2.90
2023-05-21T16:07:38.363Z,2.95
2023-05-21T16:10:06.807Z,3.25
2023-05-21T16:12:34.021Z,2.63
2023-05-21T16:15:01.117Z,3.63
2023-05-21T16:17:28.223Z,3.83
2023-05-21T16:19:55.434Z,2.90
2023-05-21T16:22:23.948Z,3.92
2023-05-21T16:24:51.420Z,3.30
2023-05-21T16:27:18.509Z,2.97
2023-05-21T16:29:45.864Z,3.95
2023-05-21T16:32:14.305Z,2.85
2023-05-21T16:34:41.586Z,3.20
2023-05-21T16:37:09.950Z,3.10
2023-05-21T16:39:37.582Z,2.50
2023-05-21T16:42:04.752Z,2.83
2023-05-21T16:44:32.470Z,2.80
2023-05-21T16:47:00.419Z,3.13
2023-05-21T16:49:28.021Z,3.20
2023-05-21T16:51:55.278Z,2.92
2023-05-21T16:54:22.622Z,2.97
2023-05-21T16:56:49.883Z,3.45
2023-05-21T16:59:16.954Z,3.60
2023-05-21T17:01:44.194Z,3.67
2023-05-21T17:04:12.131Z,2.92
2023-05-21T17:06:39.590Z,3.10
2023-05-21T17:09:06.896Z,2.78
2023-05-21T17:11:35.173Z,3.22
2023-05-21T17:14:35.778Z,3.50
2023-05-21T17:17:03.872Z,3.10
2023-05-21T17:19:31.312Z,3.15
2023-05-21T17:22:05.600Z,3.30
2023-05-21T17:24:32.817Z,3.00
2023-05-21T17:27:00.003Z,2.67
2023-05-21T17:29:27.104Z,3.20
2023-05-21T17:31:54.608Z,3.05
2023-05-21T17:35:18.058Z,2.65
2023-05-21T17:37:45.939Z,2.88
2023-05-21T17:40:13.277Z,3.30
2023-05-21T17:42:40.497Z,2.95
2023-05-21T17:45:08.001Z,2.63
2023-05-21T17:47:35.319Z,3.22
2023-05-21T17:50:02.510Z,3.28
2023-05-21T17:52:29.563Z,2.42
2023-05-21T17:54:56.876Z,3.15
2023-05-21T17:57:27.760Z,2.92
2023-05-21T17:59:55.645Z,3.20
2023-05-21T18:02:23.658Z,2.90
2023-05-21T18:08:59.816Z,4.25
2023-05-21T18:11:27.157Z,3.20
2023-05-21T18:13:54.862Z,2.70
2023-05-21T18:16:22.195Z,3.60
2023-05-21T18:18:49.413Z,3.28
2023-05-21T18:21:16.652Z,3.20
2023-05-21T18:23:43.847Z,3.20
2023-05-21T18:26:39.888Z,3.88
2023-05-21T18:29:07.094Z,3.25
2023-05-21T18:31:34.314Z,3.15
2023-05-21T18:34:01.479Z,3.50
2023-05-21T18:36:28.639Z,3.47
2023-05-21T18:38:55.761Z,3.17
2023-05-21T18:41:23.003Z,2.95
2023-05-21T18:43:51.501Z,3.63
2023-05-21T18:46:19.531Z,3.15
2023-05-21T18:48:48.730Z,3.67
2023-05-21T18:51:15.886Z,3.22
2023-05-21T18:53:43.088Z,3.50
2023-05-21T18:56:10.470Z,3.30
2023-05-21T18:58:38.239Z,3.30
2023-05-21T19:01:06.684Z,4.18
2023-05-21T19:03:33.804Z,3.50
2023-05-21T19:06:00.933Z,3.72
2023-05-21T19:08:28.020Z,4.00
2023-05-21T19:10:55.300Z,3.38
2023-05-21T19:13:23.588Z,3.67
2023-05-21T19:15:50.972Z,3.40
2023-05-21T19:18:18.092Z,3.85
2023-05-21T19:20:45.235Z,3.78
2023-05-21T19:23:12.515Z,3.53
2023-05-21T19:25:39.768Z,3.65
2023-05-21T19:28:06.916Z,3.75
2023-05-21T19:30:36.397Z,3.05
2023-05-21T19:33:03.953Z,3.28
2023-05-21T19:35:36.255Z,3.53
2023-05-21T19:38:05.320Z,3.80
2023-05-21T19:40:33.527Z,3.47
2023-05-21T19:43:26.038Z,3.75
2023-05-21T19:46:00.576Z,4.10
2023-05-21T19:48:27.890Z,3.65
2023-05-21T19:50:54.994Z,3.67
2023-05-21T19:53:23.156Z,3.85
2023-05-21T19:55:50.307Z,3.70
2023-05-21T19:58:23.665Z,3.90
2023-05-21T20:00:51.380Z,3.97
2023-05-21T20:03:19.869Z,3.70
2023-05-21T20:05:47.119Z,3.78
2023-05-21T20:08:15.034Z,4.15
2023-05-21T20:10:43.007Z,3.92
2023-05-21T20:13:11.013Z,3.80
2023-05-21T20:15:38.835Z,3.90
2023-05-21T20:18:06.895Z,4.18
2023-05-21T20:20:37.361Z,3.80
2023-05-21T20:23:04.760Z,3.47
2023-05-21T20:25:31.985Z,4.03
2023-05-21T20:28:02.829Z,3.58
2023-05-21T20:30:34.937Z,3.50
2023-05-21T20:33:21.273Z,4.10
2023-05-21T20:35:48.529Z,3.90
2023-05-21T20:38:16.111Z,3.80
2023-05-21T20:40:49.945Z,4.38
2023-05-21T20:43:18.722Z,3.65
2023-05-21T20:45:47.484Z,4.13
2023-05-21T20:48:16.933Z,3.90
2023-05-21T20:50:44.515Z,4.45
2023-05-21T20:53:15.935Z,4.32
2023-05-21T20:55:47.097Z,4.18
2023-05-21T20:58:14.288Z,4.32
2023-05-21T21:00:43.126Z,4.30
2023-05-21T21:03:12.980Z,3.97
2023-05-21T21:05:40.290Z,5.03
2023-05-21T21:08:08.326Z,4.55
2023-05-21T21:10:36.289Z,4.28
2023-05-21T21:13:03.711Z,3.70
2023-05-21T21:15:30.988Z,4.03
2023-05-21T21:17:58.175Z,4.53
2023-05-21T21:20:25.424Z,4.63
2023-05-21T21:22:52.656Z,4.32
2023-05-21T21:25:19.959Z,4.50
2023-05-21T21:27:47.095Z,4.63
2023-05-21T21:30:14.402Z,4.25
2023-05-21T21:32:43.661Z,4.47
2023-05-21T21:35:10.924Z,4.10
2023-05-21T21:37:38.073Z,3.92
2023-05-21T21:41:03.429Z,4.43
2023-05-21T21:43:30.566Z,4.47
2023-05-21T21:45:57.813Z,4.20
2023-05-21T21:48:24.970Z,4.60
2023-05-21T21:50:52.116Z,4.50
2023-05-21T21:53:19.444Z,3.65
2023-05-21T21:55:46.531Z,5.13
2023-05-21T21:58:17.630Z,4.20
2023-05-21T22:00:44.766Z,4.50
2023-05-21T22:03:14.680Z,4.70
2023-05-21T22:05:42.845Z,4.30
2023-05-21T22:08:10.122Z,4.72
2023-05-21T22:10:38.301Z,4.30
2023-05-21T22:13:05.688Z,4.50
2023-05-21T22:15:33.141Z,3.88
2023-05-21T22:18:02.604Z,4.38
2023-05-21T22:20:30.204Z,4.28
2023-05-21T22:22:58.052Z,4.70
2023-05-21T22:25:25.402Z,4.10
2023-05-21T22:27:52.763Z,4.45
2023-05-21T22:30:20.896Z,4.43
2023-05-21T22:32:48.058Z,4.07
2023-05-21T22:35:15.406Z,4.53
2023-05-21T22:37:42.493Z,4.55
2023-05-21T22:40:10.522Z,4.03
2023-05-21T22:42:38.970Z,4.38
2023-05-21T22:45:07.614Z,3.65
2023-05-21T22:47:37.280Z,4.03
2023-05-21T22:50:04.734Z,5.28
2023-05-21T22:52:32.086Z,4.18
2023-05-21T22:55:00.814Z,4.18
2023-05-21T22:57:28.283Z,4.13
2023-05-21T22:59:55.481Z,4.47
2023-05-21T23:02:23.736Z,4.47
2023-05-21T23:04:51.055Z,4.00
2023-05-21T23:07:18.179Z,4.53
2023-05-21T23:09:45.366Z,4.60
2023-05-21T23:12:12.811Z,4.35
2023-05-21T23:14:41.230Z,4.28
2023-05-21T23:17:08.757Z,4.97
2023-05-21T23:19:35.972Z,3.97
2023-05-21T23:22:03.162Z,4.45
2023-05-21T23:24:30.509Z,4.13
2023-05-21T23:29:53.029Z,3.83
2023-05-21T23:32:23.801Z,4.53
2023-05-21T23:34:51.043Z,4.40
2023-05-21T23:37:18.808Z,4.30
2023-05-21T23:39:49.745Z,4.40
2023-05-21T23:42:17.774Z,4.43
2023-05-21T23:45:10.190Z,4.22
2023-05-21T23:47:37.437Z,4.00
2023-05-21T23:50:04.942Z,3.70
2023-05-21T23:52:36.852Z,4.35
2023-05-21T23:55:04.095Z,4.00
2023-05-21T23:57:31.334Z,4.40
2023-05-21T23:59:58.460Z,3.72
